Aviation Digital Data Service (ADDS)

Output produced by METARs form (0455 UTC 06 July 2015)
found at http://aviationweather.gov/adds/metars/
 
KBHB 052332Z 0600/0624 21005KT P6SM SCT090 
     FM060400 00000KT P6SM FEW250 
     FM061600 20006KT P6SM SCT050 AMD LTD TO CLD VIS AND WIND